Time;durP1;ratioP1;P1;durP2;ratioP2;P2;SDS_P1;SDS_P2;PMS_P1;PMS_P2;Temp;Humidity;BMP_temperature;BMP_pressure;BME280_temperature;BME280_humidity;BME280_pressure;Samples;Min_cycle;Max_cycle;Signal;HPM_P1;HPM_P2
2020/12/10 00:02:22;;;;;;;70.30;33.23;;;3.10;99.90;;;;;;4928381;29;20445;-66
2020/12/10 00:04:49;;;;;;;71.40;30.10;;;3.10;99.90;;;;;;4928846;29;20450;-64
2020/12/10 00:07:22;;;;;;;71.10;28.50;;;3.10;99.90;;;;;;4929621;29;20464;-66
2020/12/10 00:09:51;;;;;;;69.30;29.40;;;3.10;99.90;;;;;;4930312;29;20497;-65
2020/12/10 00:12:17;;;;;;;61.70;30.00;;;3.10;99.90;;;;;;4930282;29;20509;-64
2020/12/10 00:14:44;;;;;;;67.83;31.40;;;3.10;99.90;;;;;;4925659;29;20449;-65
2020/12/10 00:17:11;;;;;;;66.80;30.40;;;3.10;99.90;;;;;;4930273;29;20529;-65
2020/12/10 00:19:39;;;;;;;68.63;32.83;;;3.10;99.90;;;;;;4929699;29;20454;-65
2020/12/10 00:22:05;;;;;;;76.70;33.17;;;3.10;99.90;;;;;;4930044;29;20465;-64
2020/12/10 00:24:32;;;;;;;81.93;29.97;;;3.10;99.90;;;;;;4930136;29;20532;-65
2020/12/10 00:27:00;;;;;;;67.67;29.40;;;3.10;99.90;;;;;;4929782;29;20441;-64
2020/12/10 00:29:26;;;;;;;65.97;30.70;;;3.00;99.90;;;;;;4930440;29;20473;-64
2020/12/10 00:31:53;;;;;;;69.10;28.27;;;3.00;99.90;;;;;;4929399;29;20485;-65
2020/12/10 00:34:20;;;;;;;74.67;33.43;;;3.00;99.90;;;;;;4930843;29;20446;-65
2020/12/10 00:36:47;;;;;;;60.87;31.87;;;3.00;99.90;;;;;;4928344;29;20908;-65
2020/12/10 00:39:13;;;;;;;74.47;33.50;;;2.90;99.90;;;;;;4923134;29;20564;-64
2020/12/10 00:41:40;;;;;;;77.10;29.87;;;2.90;99.90;;;;;;4923223;29;20532;-64
2020/12/10 00:44:07;;;;;;;82.50;34.80;;;2.90;99.90;;;;;;4923997;29;20465;-64
2020/12/10 00:46:33;;;;;;;68.23;30.70;;;2.90;99.90;;;;;;4923608;29;20437;-64
2020/12/10 00:49:02;;;;;;;78.90;34.77;;;2.90;99.90;;;;;;4923198;29;20533;-64
2020/12/10 00:51:28;;;;;;;78.57;32.90;;;2.90;99.90;;;;;;4922911;29;20493;-64
2020/12/10 00:53:55;;;;;;;67.37;32.80;;;3.00;99.90;;;;;;4923477;29;20492;-64
2020/12/10 00:56:21;;;;;;;93.93;33.47;;;3.00;99.90;;;;;;4923892;29;20491;-64
2020/12/10 00:58:47;;;;;;;71.97;32.13;;;3.00;99.90;;;;;;4923403;29;20473;-65
2020/12/10 01:01:15;;;;;;;87.07;34.80;;;3.00;99.90;;;;;;4923838;29;21044;-65
2020/12/10 01:03:42;;;;;;;92.80;35.63;;;2.90;99.90;;;;;;4923021;29;20741;-64
2020/12/10 01:06:12;;;;;;;74.17;33.37;;;2.90;99.90;;;;;;4923481;29;20465;-65
2020/12/10 01:08:39;;;;;;;77.67;34.17;;;2.80;99.90;;;;;;4924110;29;20919;-64
2020/12/10 01:11:05;;;;;;;82.10;32.20;;;2.80;99.90;;;;;;4924123;29;20477;-65
2020/12/10 01:13:31;;;;;;;84.23;32.50;;;2.80;99.90;;;;;;4923167;29;20488;-64
2020/12/10 01:16:00;;;;;;;66.50;29.50;;;2.80;99.90;;;;;;4922946;29;20540;-65
2020/12/10 01:18:30;;;;;;;82.23;33.17;;;2.80;99.90;;;;;;4923539;29;20449;-65
2020/12/10 01:20:56;;;;;;;75.37;27.87;;;2.90;99.90;;;;;;4923428;29;20540;-64
2020/12/10 01:23:23;;;;;;;85.33;34.40;;;2.90;99.90;;;;;;4923115;29;21000;-65
2020/12/10 01:25:49;;;;;;;80.77;34.00;;;2.80;99.90;;;;;;4923679;29;20488;-65
2020/12/10 01:28:16;;;;;;;83.60;30.63;;;2.80;99.90;;;;;;4922689;29;20501;-66
2020/12/10 01:30:42;;;;;;;74.17;33.83;;;2.80;99.90;;;;;;4923812;29;20485;-63
2020/12/10 01:33:09;;;;;;;91.90;36.47;;;2.80;99.90;;;;;;4925313;29;20544;-65
2020/12/10 01:35:36;;;;;;;84.60;34.90;;;2.80;99.90;;;;;;4922687;29;20484;-65
2020/12/10 01:38:03;;;;;;;86.47;34.50;;;2.80;99.90;;;;;;4922632;29;20480;-65
2020/12/10 01:40:29;;;;;;;89.23;31.90;;;2.80;99.90;;;;;;4923537;29;20472;-64
2020/12/10 01:42:55;;;;;;;96.03;33.97;;;2.80;99.90;;;;;;4923455;29;20441;-63
2020/12/10 01:45:22;;;;;;;82.90;35.03;;;2.80;99.90;;;;;;4923056;29;20561;-64
2020/12/10 01:47:48;;;;;;;96.33;33.20;;;2.80;99.90;;;;;;4922284;29;20773;-65
2020/12/10 01:50:14;;;;;;;79.57;31.20;;;2.80;99.90;;;;;;4923066;29;20485;-65
2020/12/10 01:52:42;;;;;;;80.47;29.97;;;2.80;99.90;;;;;;4922316;29;20552;-64
2020/12/10 01:55:08;;;;;;;72.23;29.70;;;2.80;99.90;;;;;;4923212;29;20481;-65
2020/12/10 01:57:35;;;;;;;89.50;35.00;;;2.80;99.90;;;;;;4922979;29;20445;-64
2020/12/10 02:00:01;;;;;;;85.80;31.50;;;2.80;99.90;;;;;;4923148;29;20812;-65
2020/12/10 02:02:28;;;;;;;80.77;34.73;;;2.80;99.90;;;;;;4924475;29;20446;-65
2020/12/10 02:04:54;;;;;;;72.13;31.60;;;2.70;99.90;;;;;;4927296;29;20449;-65
2020/12/10 02:07:20;;;;;;;77.77;31.33;;;2.80;99.90;;;;;;4926626;29;20489;-65
2020/12/10 02:09:47;;;;;;;67.87;29.60;;;2.70;99.90;;;;;;4926255;29;20492;-64
2020/12/10 02:12:15;;;;;;;75.13;32.77;;;2.70;99.90;;;;;;4926174;29;20492;-64
2020/12/10 02:14:42;;;;;;;86.90;31.80;;;2.60;99.90;;;;;;4925372;29;20473;-64
2020/12/10 02:17:08;;;;;;;80.90;29.57;;;2.60;99.90;;;;;;4926452;29;20450;-65
2020/12/10 02:19:35;;;;;;;94.50;35.23;;;2.60;99.90;;;;;;4926351;29;21000;-65
2020/12/10 02:22:01;;;;;;;88.47;30.97;;;2.60;99.90;;;;;;4926197;29;20540;-65
2020/12/10 02:24:29;;;;;;;90.40;35.73;;;2.60;99.90;;;;;;4926702;29;20479;-64
2020/12/10 02:26:55;;;;;;;81.13;33.73;;;2.60;99.90;;;;;;4926027;29;20524;-63
2020/12/10 02:29:22;;;;;;;79.50;33.57;;;2.60;99.90;;;;;;4926612;29;20928;-64
2020/12/10 02:31:48;;;;;;;91.20;33.80;;;2.60;99.90;;;;;;4927095;29;20541;-65
2020/12/10 02:34:15;;;;;;;80.17;35.03;;;2.60;99.90;;;;;;4926356;29;20477;-65
2020/12/10 02:36:43;;;;;;;89.77;34.23;;;2.60;99.90;;;;;;4924632;29;20492;-65
2020/12/10 02:39:10;;;;;;;91.43;35.63;;;2.60;99.90;;;;;;4926098;29;20553;-64
2020/12/10 02:41:37;;;;;;;92.20;35.60;;;2.60;99.90;;;;;;4926058;29;20438;-65
2020/12/10 02:44:05;;;;;;;82.53;32.43;;;2.60;99.90;;;;;;4926521;29;20454;-63
2020/12/10 02:46:31;;;;;;;91.83;33.17;;;2.60;99.90;;;;;;4926635;29;20896;-64
2020/12/10 02:49:01;;;;;;;68.23;33.27;;;2.60;99.90;;;;;;4927030;29;20549;-64
2020/12/10 02:51:27;;;;;;;73.30;32.13;;;2.60;99.90;;;;;;4926243;29;20597;-64
2020/12/10 02:53:54;;;;;;;75.67;31.37;;;2.60;99.90;;;;;;4925371;29;20980;-64
2020/12/10 02:56:20;;;;;;;85.90;30.90;;;2.60;99.90;;;;;;4926347;29;20963;-65
2020/12/10 02:58:47;;;;;;;89.67;31.63;;;2.60;99.90;;;;;;4925912;29;20461;-65
2020/12/10 03:01:14;;;;;;;93.23;37.77;;;2.60;99.90;;;;;;4925802;29;20485;-65
2020/12/10 03:03:40;;;;;;;66.20;31.10;;;2.50;99.90;;;;;;4925398;29;20529;-65
2020/12/10 03:06:07;;;;;;;80.10;30.73;;;2.50;99.90;;;;;;4925386;29;20477;-65
2020/12/10 03:08:34;;;;;;;91.70;32.90;;;2.50;99.90;;;;;;4925217;29;20469;-65
2020/12/10 03:11:01;;;;;;;81.83;31.47;;;2.50;99.90;;;;;;4925209;29;20528;-66
2020/12/10 03:13:27;;;;;;;84.77;31.93;;;2.50;99.90;;;;;;4924407;29;20577;-64
2020/12/10 03:15:54;;;;;;;77.20;34.13;;;2.60;99.90;;;;;;4926201;29;20481;-64
2020/12/10 03:18:21;;;;;;;78.33;30.33;;;2.60;99.90;;;;;;4925967;29;20488;-64
2020/12/10 03:20:47;;;;;;;94.97;34.80;;;2.60;99.90;;;;;;4925238;29;20481;-65
2020/12/10 03:23:14;;;;;;;79.83;34.43;;;2.50;99.90;;;;;;5032138;23;20527;-65
2020/12/10 03:25:40;;;;;;;98.33;37.20;;;2.50;99.90;;;;;;4976118;23;20599;-64
2020/12/10 03:28:07;;;;;;;93.03;34.07;;;2.40;99.90;;;;;;4945069;29;20537;-64
2020/12/10 03:30:33;;;;;;;91.23;35.50;;;2.40;99.90;;;;;;4945106;29;20469;-64
2020/12/10 03:33:01;;;;;;;93.40;34.80;;;2.50;99.90;;;;;;4944762;29;20488;-64
2020/12/10 03:35:27;;;;;;;84.00;34.30;;;2.50;99.90;;;;;;4943670;29;20951;-64
2020/12/10 03:37:54;;;;;;;73.53;32.23;;;2.50;99.90;;;;;;4943964;29;20536;-64
2020/12/10 03:40:20;;;;;;;83.03;32.97;;;2.50;99.90;;;;;;4943440;29;20585;-64
2020/12/10 03:42:47;;;;;;;93.00;32.23;;;2.60;99.90;;;;;;4943832;29;20552;-66
2020/12/10 03:45:13;;;;;;;75.67;28.63;;;2.60;99.90;;;;;;4943500;29;20563;-64
2020/12/10 03:47:39;;;;;;;91.53;33.43;;;2.60;99.90;;;;;;4943483;29;20535;-64
2020/12/10 03:50:07;;;;;;;82.13;30.57;;;2.60;99.90;;;;;;4944210;29;20468;-65
2020/12/10 03:52:33;;;;;;;86.30;30.07;;;2.60;99.90;;;;;;4944131;29;20492;-66
2020/12/10 03:55:00;;;;;;;82.47;30.80;;;2.60;99.90;;;;;;4943676;29;20858;-65
2020/12/10 03:57:26;;;;;;;78.13;31.23;;;2.60;99.90;;;;;;4943543;29;20480;-66
2020/12/10 03:59:53;;;;;;;80.63;32.53;;;2.60;99.90;;;;;;4943903;29;20524;-65
2020/12/10 04:02:19;;;;;;;69.13;32.67;;;2.60;99.90;;;;;;4943467;29;20480;-65
2020/12/10 04:04:45;;;;;;;66.93;28.40;;;2.60;99.90;;;;;;4943159;29;20476;-67
2020/12/10 04:07:13;;;;;;;76.77;31.87;;;2.60;99.90;;;;;;4942697;29;20548;-65
2020/12/10 04:09:39;;;;;;;101.53;36.23;;;2.60;99.90;;;;;;4942055;29;20527;-65
2020/12/10 04:12:05;;;;;;;87.77;31.10;;;2.70;99.90;;;;;;4942951;29;20488;-64
2020/12/10 04:14:32;;;;;;;84.17;34.10;;;2.70;99.90;;;;;;4942999;29;20496;-63
2020/12/10 04:16:58;;;;;;;70.33;26.87;;;2.70;99.90;;;;;;4943890;29;20799;-66
2020/12/10 04:19:25;;;;;;;76.63;31.97;;;2.60;99.90;;;;;;4944438;29;20519;-65
2020/12/10 04:21:51;;;;;;;70.57;32.13;;;2.60;99.90;;;;;;4943646;29;20485;-64
2020/12/10 04:24:18;;;;;;;73.40;31.23;;;2.60;99.90;;;;;;4943880;29;20508;-64
2020/12/10 04:26:44;;;;;;;78.97;29.93;;;2.60;99.90;;;;;;4924751;29;20783;-65
2020/12/10 04:29:13;;;;;;;71.93;29.83;;;2.60;99.90;;;;;;4923900;29;20529;-64
2020/12/10 04:31:41;;;;;;;80.27;31.27;;;2.60;99.90;;;;;;4923316;29;20449;-65
2020/12/10 04:34:07;;;;;;;86.83;31.40;;;2.60;99.90;;;;;;4923080;29;20489;-65
2020/12/10 04:36:34;;;;;;;78.40;31.30;;;2.60;99.90;;;;;;4923514;29;20516;-65
2020/12/10 04:39:00;;;;;;;88.90;31.27;;;2.60;99.90;;;;;;4924374;29;20459;-64
2020/12/10 04:41:30;;;;;;;79.97;32.17;;;2.60;99.90;;;;;;4923801;29;20909;-65
2020/12/10 04:43:56;;;;;;;72.13;31.10;;;2.60;99.90;;;;;;4924763;29;20446;-65
2020/12/10 04:46:25;;;;;;;69.63;31.47;;;2.60;99.90;;;;;;4924544;29;20485;-65
2020/12/10 04:48:53;;;;;;;69.03;27.10;;;2.60;99.90;;;;;;4924349;29;20445;-65
2020/12/10 04:51:22;;;;;;;81.57;27.40;;;2.60;99.90;;;;;;4924430;29;20489;-65
2020/12/10 04:53:50;;;;;;;86.23;31.67;;;2.50;99.90;;;;;;4924943;29;20995;-65
2020/12/10 04:56:17;;;;;;;75.97;30.13;;;2.50;99.90;;;;;;4924537;29;20485;-65
2020/12/10 04:58:45;;;;;;;76.13;29.17;;;2.50;99.90;;;;;;4924408;29;20556;-65
2020/12/10 05:01:14;;;;;;;68.37;30.90;;;2.50;99.90;;;;;;4924450;29;20617;-63
2020/12/10 05:03:45;;;;;;;82.77;32.23;;;2.50;99.90;;;;;;4924562;29;20446;-65
2020/12/10 05:06:13;;;;;;;73.63;31.57;;;2.40;99.90;;;;;;4924234;29;20530;-64
2020/12/10 05:08:40;;;;;;;66.73;28.57;;;2.40;99.90;;;;;;4924124;29;20490;-64
2020/12/10 05:11:06;;;;;;;78.00;32.40;;;2.40;99.90;;;;;;4924637;29;20541;-64
2020/12/10 05:13:33;;;;;;;61.87;29.07;;;2.40;99.90;;;;;;4923832;29;20485;-64
2020/12/10 05:16:00;;;;;;;85.40;34.27;;;2.40;99.90;;;;;;4923929;29;20529;-64
2020/12/10 05:18:28;;;;;;;70.33;28.50;;;2.40;99.90;;;;;;4924127;29;20522;-64
2020/12/10 05:20:56;;;;;;;69.63;28.90;;;2.40;99.90;;;;;;4923966;29;20450;-64
2020/12/10 05:23:31;;;;;;;86.67;29.57;;;2.40;99.90;;;;;;4924256;29;20832;-64
2020/12/10 05:25:58;;;;;;;79.80;28.00;;;2.40;99.90;;;;;;4936754;29;20480;-64
2020/12/10 05:28:26;;;;;;;78.17;30.27;;;2.40;99.90;;;;;;4942457;29;20844;-64
2020/12/10 05:31:04;;;;;;;73.03;27.40;;;2.40;99.90;;;;;;4942270;29;20520;-64
2020/12/10 05:33:31;;;;;;;71.80;30.27;;;2.40;99.90;;;;;;4942278;29;20495;-65
2020/12/10 05:36:10;;;;;;;74.83;31.97;;;2.30;99.90;;;;;;4942215;29;20460;-65
2020/12/10 05:38:58;;;;;;;80.80;29.23;;;2.30;99.90;;;;;;4943129;29;20476;-65
2020/12/10 05:41:25;;;;;;;68.83;30.00;;;2.30;99.90;;;;;;4942273;29;20555;-64
2020/12/10 05:43:52;;;;;;;70.97;29.13;;;2.30;99.90;;;;;;4943233;29;20444;-64
2020/12/10 05:46:21;;;;;;;80.90;32.60;;;2.30;99.90;;;;;;4942709;29;20512;-64
2020/12/10 05:48:49;;;;;;;78.20;30.20;;;2.30;99.90;;;;;;4943150;29;20444;-64
2020/12/10 05:51:17;;;;;;;63.50;26.80;;;2.30;99.90;;;;;;4942706;29;20460;-64
2020/12/10 05:53:45;;;;;;;86.60;31.73;;;2.40;99.90;;;;;;4942240;29;20583;-65
2020/12/10 05:56:13;;;;;;;89.27;34.00;;;2.40;99.90;;;;;;4943520;29;20472;-64
2020/12/10 05:58:50;;;;;;;90.23;31.50;;;2.40;99.90;;;;;;4942150;29;20492;-65
2020/12/10 06:01:33;;;;;;;80.57;30.23;;;2.30;99.90;;;;;;4943417;29;20887;-65
2020/12/10 06:03:59;;;;;;;68.90;27.73;;;2.30;99.90;;;;;;4942350;29;20444;-65
2020/12/10 06:06:29;;;;;;;77.17;31.03;;;2.40;99.90;;;;;;4942469;29;20516;-64
2020/12/10 06:09:03;;;;;;;82.70;31.37;;;2.40;99.90;;;;;;4942706;29;20499;-65
2020/12/10 06:11:31;;;;;;;72.53;29.23;;;2.40;99.90;;;;;;4942962;29;20468;-64
2020/12/10 06:14:03;;;;;;;71.17;30.57;;;2.40;99.90;;;;;;4943116;29;20485;-64
2020/12/10 06:16:30;;;;;;;73.77;28.73;;;2.40;99.90;;;;;;4942411;29;20460;-64
2020/12/10 06:19:03;;;;;;;76.73;31.03;;;2.40;99.90;;;;;;4942370;29;20481;-64
2020/12/10 06:21:37;;;;;;;78.00;31.20;;;2.40;99.90;;;;;;4942786;29;20441;-64
2020/12/10 06:24:44;;;;;;;64.10;26.33;;;2.40;99.90;;;;;;4942997;29;20440;-64
2020/12/10 06:27:26;;;;;;;67.03;28.57;;;2.40;99.90;;;;;;4919619;29;20957;-64
2020/12/10 06:30:11;;;;;;;59.20;27.57;;;2.30;99.90;;;;;;4922092;29;20441;-64
2020/12/10 06:32:44;;;;;;;71.93;27.60;;;2.30;99.90;;;;;;4920518;29;20485;-60
2020/12/10 06:35:33;;;;;;;64.53;25.93;;;2.30;99.90;;;;;;4923139;29;20457;-60
2020/12/10 06:37:59;;;;;;;76.10;26.93;;;2.40;99.90;;;;;;4925088;29;20438;-61
2020/12/10 06:40:34;;;;;;;66.67;27.17;;;2.40;99.90;;;;;;4921575;29;20449;-62
2020/12/10 06:43:01;;;;;;;66.23;25.67;;;2.40;99.90;;;;;;4925086;29;20460;-61
2020/12/10 06:45:31;;;;;;;74.63;25.60;;;2.40;99.90;;;;;;4926914;29;20485;-64
2020/12/10 06:47:59;;;;;;;70.17;27.13;;;2.40;99.90;;;;;;4928527;29;20505;-60
2020/12/10 06:50:27;;;;;;;61.60;26.57;;;2.40;99.90;;;;;;4934011;29;20453;-62
2020/12/10 06:53:14;;;;;;;70.33;28.27;;;2.40;99.90;;;;;;4933051;29;20521;-61
2020/12/10 06:56:03;;;;;;;60.77;23.87;;;2.40;99.90;;;;;;4934019;29;20453;-61
2020/12/10 06:58:48;;;;;;;64.77;26.20;;;2.40;99.90;;;;;;4933510;29;20430;-61
2020/12/10 07:01:26;;;;;;;65.30;24.37;;;2.40;99.90;;;;;;4933093;29;20773;-61
2020/12/10 07:04:09;;;;;;;61.83;25.47;;;2.40;99.90;;;;;;4932908;29;20441;-62
2020/12/10 07:06:35;;;;;;;53.60;24.57;;;2.40;99.90;;;;;;4917571;29;20513;-61
2020/12/10 07:09:05;;;;;;;58.40;25.80;;;2.30;99.90;;;;;;4933061;29;20465;-61
2020/12/10 07:11:33;;;;;;;64.10;25.90;;;2.40;99.90;;;;;;4936481;29;20441;-62
2020/12/10 07:14:00;;;;;;;60.20;27.67;;;2.30;99.90;;;;;;4936794;29;20492;-62
2020/12/10 07:16:31;;;;;;;58.33;25.27;;;2.30;99.90;;;;;;4934704;29;20485;-61
2020/12/10 07:18:59;;;;;;;62.57;25.33;;;2.20;99.90;;;;;;4933747;29;20449;-61
2020/12/10 07:21:25;;;;;;;62.23;26.23;;;2.30;99.90;;;;;;4933756;29;20453;-61
2020/12/10 07:23:52;;;;;;;63.27;26.80;;;2.20;99.90;;;;;;4950394;29;20448;-60
2020/12/10 07:26:19;;;;;;;68.83;27.53;;;2.20;99.90;;;;;;4952051;29;20520;-61
2020/12/10 07:28:47;;;;;;;59.50;25.80;;;2.30;99.90;;;;;;4952321;29;20486;-61
2020/12/10 07:31:15;;;;;;;59.00;24.20;;;2.30;99.90;;;;;;4951231;29;20564;-61
2020/12/10 07:33:42;;;;;;;75.20;28.43;;;2.40;99.90;;;;;;4948635;29;20493;-61
2020/12/10 07:36:10;;;;;;;84.57;29.93;;;2.30;99.90;;;;;;4951192;29;20449;-61
2020/12/10 07:38:36;;;;;;;80.13;29.40;;;2.40;99.90;;;;;;4952292;29;20535;-61
2020/12/10 07:41:03;;;;;;;66.00;24.83;;;2.30;99.90;;;;;;4952093;29;20453;-61
2020/12/10 07:43:29;;;;;;;68.00;26.93;;;2.40;99.90;;;;;;4951598;29;20445;-65
2020/12/10 07:45:56;;;;;;;63.80;24.77;;;2.40;99.90;;;;;;4951221;29;20448;-65
2020/12/10 07:48:22;;;;;;;77.07;24.93;;;2.40;99.90;;;;;;4951167;29;20452;-65
2020/12/10 07:50:49;;;;;;;69.87;24.80;;;2.40;99.90;;;;;;4950043;29;20457;-65
2020/12/10 07:53:17;;;;;;;62.10;27.03;;;2.50;99.90;;;;;;4951138;29;20545;-65
2020/12/10 07:55:52;;;;;;;68.17;26.67;;;2.60;99.90;;;;;;4950071;29;20844;-65
2020/12/10 07:58:25;;;;;;;72.33;26.20;;;2.60;99.90;;;;;;4949892;29;20482;-65
2020/12/10 08:00:53;;;;;;;65.87;26.43;;;2.50;99.90;;;;;;4948264;29;20441;-65
2020/12/10 08:03:26;;;;;;;57.87;22.60;;;2.50;99.90;;;;;;4943478;29;20449;-65
2020/12/10 08:06:14;;;;;;;58.03;24.33;;;2.40;99.90;;;;;;4942431;29;20484;-65
2020/12/10 08:08:44;;;;;;;56.60;25.10;;;2.40;99.90;;;;;;4934387;29;20507;-66
2020/12/10 08:11:13;;;;;;;58.90;24.00;;;2.50;99.90;;;;;;4941776;29;20505;-64
2020/12/10 08:14:00;;;;;;;58.73;26.53;;;2.50;99.90;;;;;;4941720;29;20496;-66
2020/12/10 08:16:41;;;;;;;53.47;22.50;;;2.50;99.90;;;;;;4942121;29;20468;-65
2020/12/10 08:19:15;;;;;;;51.47;23.93;;;2.40;99.90;;;;;;4944063;29;21416;-64
2020/12/10 08:21:42;;;;;;;50.60;23.30;;;2.40;99.90;;;;;;4946208;29;20449;-63
2020/12/10 08:24:12;;;;;;;57.53;22.90;;;2.40;99.90;;;;;;4942858;29;20552;-63
2020/12/10 08:26:39;;;;;;;70.77;23.27;;;2.50;99.90;;;;;;4946840;29;20480;-63
2020/12/10 08:29:06;;;;;;;58.70;25.80;;;2.40;99.90;;;;;;4948813;29;20437;-64
2020/12/10 08:31:33;;;;;;;60.83;25.07;;;2.50;99.90;;;;;;4949439;29;20465;-63
2020/12/10 08:34:01;;;;;;;59.00;23.67;;;2.40;99.90;;;;;;4950601;29;20496;-64
2020/12/10 08:36:31;;;;;;;68.63;24.40;;;2.40;99.90;;;;;;4949296;29;20552;-64
2020/12/10 08:39:00;;;;;;;52.63;23.30;;;2.40;99.90;;;;;;4949056;29;20449;-67
2020/12/10 08:41:30;;;;;;;54.50;24.27;;;2.40;99.90;;;;;;4947728;29;20476;-68
2020/12/10 08:43:59;;;;;;;64.67;23.37;;;2.40;99.90;;;;;;4947639;29;20453;-67
2020/12/10 08:46:27;;;;;;;57.03;24.20;;;2.40;99.90;;;;;;4948901;29;20464;-66
2020/12/10 08:48:56;;;;;;;63.50;22.33;;;2.40;99.90;;;;;;4948749;29;20452;-65
2020/12/10 08:51:35;;;;;;;66.37;25.30;;;2.40;99.90;;;;;;4948058;29;20457;-65
2020/12/10 08:54:02;;;;;;;65.93;24.10;;;2.40;99.90;;;;;;4946864;29;20571;-72
2020/12/10 08:56:35;;;;;;;60.50;28.30;;;2.40;99.90;;;;;;4944283;29;20852;-71
2020/12/10 08:59:02;;;;;;;65.43;26.40;;;2.40;99.90;;;;;;4940256;29;20464;-71
2020/12/10 09:01:29;;;;;;;68.17;27.33;;;2.40;99.90;;;;;;4943482;29;20456;-64
2020/12/10 09:03:55;;;;;;;63.93;26.90;;;2.40;99.90;;;;;;4944754;29;20661;-65
2020/12/10 09:06:23;;;;;;;56.80;25.67;;;2.40;99.90;;;;;;4942219;29;20472;-65
2020/12/10 09:08:51;;;;;;;76.30;26.83;;;2.40;99.90;;;;;;4940429;29;20516;-67
2020/12/10 09:11:18;;;;;;;56.63;23.00;;;2.40;99.90;;;;;;4938666;29;20464;-67
2020/12/10 09:13:48;;;;;;;56.77;27.10;;;2.40;99.90;;;;;;4943861;29;20476;-68
2020/12/10 09:16:17;;;;;;;69.10;26.47;;;2.40;99.90;;;;;;4940894;29;20464;-68
2020/12/10 09:18:44;;;;;;;55.47;25.00;;;2.40;99.90;;;;;;4941226;29;20440;-68
2020/12/10 09:21:11;;;;;;;82.50;27.57;;;2.40;99.90;;;;;;4939382;29;20778;-69
2020/12/10 09:23:43;;;;;;;85.20;30.80;;;2.40;99.90;;;;;;4946963;29;20452;-68
2020/12/10 09:26:10;;;;;;;76.33;25.27;;;2.40;99.90;;;;;;4946378;29;20500;-68
2020/12/10 09:28:37;;;;;;;57.93;24.17;;;2.30;99.90;;;;;;4947980;29;20527;-68
2020/12/10 09:31:06;;;;;;;61.47;23.67;;;2.30;99.90;;;;;;4942636;29;20469;-69
2020/12/10 09:33:32;;;;;;;68.20;26.23;;;2.30;99.90;;;;;;4940676;29;20480;-66
2020/12/10 09:36:00;;;;;;;81.33;28.50;;;2.40;99.90;;;;;;4941024;29;20532;-65
2020/12/10 09:38:27;;;;;;;73.93;25.03;;;2.40;99.90;;;;;;4943162;29;20464;-66
2020/12/10 09:40:57;;;;;;;71.37;29.57;;;2.30;99.90;;;;;;4939962;29;20476;-66
2020/12/10 09:43:24;;;;;;;78.37;29.90;;;2.40;99.90;;;;;;4952413;29;20440;-68
2020/12/10 09:45:56;;;;;;;77.10;29.20;;;2.30;99.90;;;;;;4952427;29;20463;-68
2020/12/10 09:48:24;;;;;;;78.50;27.50;;;2.30;99.90;;;;;;4941284;29;20449;-68
2020/12/10 09:50:51;;;;;;;83.57;31.73;;;2.40;99.90;;;;;;4947168;29;20452;-66
2020/12/10 09:53:21;;;;;;;90.67;30.13;;;2.40;99.90;;;;;;4944536;29;20512;-69
2020/12/10 09:58:30;;;;;;;96.23;34.87;;;2.40;99.90;;;;;;4941651;29;20492;-69
2020/12/10 10:00:59;;;;;;;68.60;28.93;;;2.50;99.90;;;;;;4947716;29;20473;-68
2020/12/10 10:03:26;;;;;;;74.43;27.43;;;2.50;99.90;;;;;;4945257;29;20476;-68
2020/12/10 10:05:53;;;;;;;87.10;28.57;;;2.60;99.90;;;;;;4949791;29;20449;-70
2020/12/10 10:08:22;;;;;;;83.53;28.47;;;2.60;99.90;;;;;;4954971;29;20535;-70
2020/12/10 10:10:49;;;;;;;73.40;28.10;;;2.50;99.90;;;;;;4945510;29;20463;-69
2020/12/10 10:13:16;;;;;;;68.07;27.43;;;2.50;99.90;;;;;;4940994;29;20476;-70
2020/12/10 10:15:45;;;;;;;64.33;28.63;;;2.50;99.90;;;;;;4938185;29;20811;-69
2020/12/10 10:18:11;;;;;;;69.73;26.87;;;2.50;99.90;;;;;;4942931;29;20452;-69
2020/12/10 10:20:40;;;;;;;78.87;30.27;;;2.40;99.90;;;;;;4937588;29;20824;-69
2020/12/10 10:23:06;;;;;;;59.03;26.00;;;2.40;99.90;;;;;;4945112;29;20455;-66
2020/12/10 10:25:33;;;;;;;75.17;27.93;;;2.40;99.90;;;;;;4940760;29;20476;-67
2020/12/10 10:28:01;;;;;;;65.17;28.93;;;2.40;99.90;;;;;;4948478;29;20444;-65
2020/12/10 10:30:28;;;;;;;62.27;23.07;;;2.50;99.90;;;;;;4951691;29;20463;-65
2020/12/10 10:32:55;;;;;;;78.50;27.40;;;2.50;99.90;;;;;;4947818;29;20484;-65
2020/12/10 10:35:23;;;;;;;74.23;27.30;;;2.50;99.90;;;;;;4943843;29;20463;-67
2020/12/10 10:37:51;;;;;;;67.63;28.20;;;2.40;99.90;;;;;;4943971;29;20950;-64
2020/12/10 10:40:18;;;;;;;76.07;26.67;;;2.40;99.90;;;;;;4944663;29;20834;-64
2020/12/10 10:42:46;;;;;;;64.00;25.10;;;2.40;99.90;;;;;;4944908;29;20527;-65
2020/12/10 10:45:13;;;;;;;66.07;24.90;;;2.40;99.90;;;;;;4945485;29;20452;-65
2020/12/10 10:47:39;;;;;;;60.93;26.50;;;2.50;99.90;;;;;;4939542;29;20468;-65
2020/12/10 10:50:06;;;;;;;83.00;25.80;;;2.50;99.90;;;;;;4943325;29;20444;-64
2020/12/10 10:52:35;;;;;;;72.83;26.03;;;2.50;99.90;;;;;;4943569;29;20504;-64
2020/12/10 10:55:03;;;;;;;65.07;25.77;;;2.50;99.90;;;;;;4951138;29;20450;-68
2020/12/10 10:57:30;;;;;;;64.33;24.20;;;2.50;99.90;;;;;;4948102;29;20472;-68
2020/12/10 10:59:57;;;;;;;67.77;24.43;;;2.50;99.90;;;;;;4945635;29;20471;-67
2020/12/10 11:02:24;;;;;;;72.90;28.00;;;2.60;99.90;;;;;;4937954;29;20539;-71
2020/12/10 11:04:53;;;;;;;70.93;26.47;;;2.60;99.90;;;;;;4947132;29;20775;-71
2020/12/10 11:07:19;;;;;;;70.87;25.93;;;2.70;99.90;;;;;;4949208;29;20498;-65
2020/12/10 11:09:49;;;;;;;69.97;26.30;;;2.60;99.90;;;;;;4950511;29;20456;-65
2020/12/10 11:12:17;;;;;;;65.30;25.60;;;2.60;99.90;;;;;;4940098;29;20456;-64
2020/12/10 11:14:44;;;;;;;73.60;26.07;;;2.60;99.90;;;;;;4951074;29;20958;-64
2020/12/10 11:17:10;;;;;;;66.50;26.83;;;2.60;99.90;;;;;;4950391;29;20460;-65
2020/12/10 11:19:37;;;;;;;73.10;28.53;;;2.60;99.90;;;;;;4947811;29;20459;-65
2020/12/10 11:22:04;;;;;;;73.30;23.90;;;2.60;99.90;;;;;;4949189;29;20547;-66
2020/12/10 11:24:31;;;;;;;78.20;25.03;;;2.60;99.90;;;;;;4951100;29;21127;-65
2020/12/10 11:26:59;;;;;;;74.00;25.67;;;2.60;99.90;;;;;;4946094;29;20451;-66
2020/12/10 11:29:26;;;;;;;63.47;24.10;;;2.50;99.90;;;;;;4949041;29;20480;-66
2020/12/10 11:31:54;;;;;;;61.53;23.17;;;2.50;99.90;;;;;;4948609;29;20448;-68
2020/12/10 11:34:21;;;;;;;66.03;23.97;;;2.50;99.90;;;;;;4950044;29;20480;-67
2020/12/10 11:36:48;;;;;;;74.40;26.50;;;2.50;99.90;;;;;;4949484;29;21150;-69
2020/12/10 11:39:18;;;;;;;64.17;25.47;;;2.50;99.90;;;;;;4949480;29;20980;-69
2020/12/10 11:41:44;;;;;;;70.53;26.47;;;2.50;99.90;;;;;;4947528;29;20449;-71
2020/12/10 11:44:12;;;;;;;62.40;26.87;;;2.50;99.90;;;;;;4947948;29;20445;-72
2020/12/10 11:46:39;;;;;;;62.03;23.57;;;2.50;99.90;;;;;;4951976;29;20457;-68
2020/12/10 11:49:06;;;;;;;58.77;22.13;;;2.50;99.90;;;;;;4951760;29;20439;-65
2020/12/10 11:51:33;;;;;;;69.73;25.83;;;2.50;99.90;;;;;;4953388;29;20512;-66
2020/12/10 11:54:00;;;;;;;61.63;24.27;;;2.50;99.90;;;;;;4950390;29;20931;-66
2020/12/10 11:56:26;;;;;;;67.30;24.10;;;2.50;99.90;;;;;;4948973;29;20445;-69
2020/12/10 11:58:53;;;;;;;83.43;26.30;;;2.50;99.90;;;;;;4944230;29;20508;-69
2020/12/10 12:01:20;;;;;;;69.03;24.13;;;2.50;99.90;;;;;;4947876;29;20464;-69
2020/12/10 12:03:48;;;;;;;59.73;24.73;;;2.50;99.90;;;;;;4948124;29;20768;-72
2020/12/10 12:06:16;;;;;;;61.70;22.83;;;2.60;99.90;;;;;;4946921;29;20483;-73
2020/12/10 12:09:06;;;;;;;64.70;22.17;;;2.60;99.90;;;;;;5132216;27;20555;-67
2020/12/10 12:11:37;;;;;;;62.50;20.53;;;2.60;99.90;;;;;;5130513;27;20468;-68
2020/12/10 12:14:04;;;;;;;53.00;23.70;;;2.60;99.90;;;;;;5138041;27;20454;-67
2020/12/10 12:16:33;;;;;;;56.80;19.90;;;2.60;99.90;;;;;;5128953;27;20497;-69
2020/12/10 12:19:00;;;;;;;72.73;23.80;;;2.60;99.90;;;;;;5124665;28;20463;-70
2020/12/10 12:21:28;;;;;;;62.67;22.93;;;2.60;99.90;;;;;;5123314;27;20449;-67
2020/12/10 12:23:55;;;;;;;68.20;24.93;;;2.60;99.90;;;;;;5124394;27;20449;-68
2020/12/10 12:26:30;;;;;;;66.73;25.33;;;2.60;99.90;;;;;;5127982;28;20742;-67
2020/12/10 12:28:57;;;;;;;55.23;20.50;;;2.60;99.90;;;;;;5122614;28;20451;-69
2020/12/10 12:31:28;;;;;;;46.97;19.70;;;2.60;99.90;;;;;;5126295;27;20789;-66
2020/12/10 12:33:55;;;;;;;44.73;21.93;;;2.60;99.90;;;;;;5123236;28;20448;-70
2020/12/10 12:36:22;;;;;;;62.07;19.60;;;2.60;99.90;;;;;;5111994;28;20470;-70
2020/12/10 12:38:49;;;;;;;46.53;20.17;;;2.50;99.90;;;;;;5111468;28;20958;-69
2020/12/10 12:41:16;;;;;;;52.83;20.03;;;2.50;99.90;;;;;;5115221;28;20447;-71
2020/12/10 12:43:45;;;;;;;53.97;20.13;;;2.50;99.90;;;;;;5115061;28;20480;-68
2020/12/10 12:46:11;;;;;;;49.13;18.37;;;2.50;99.90;;;;;;5115016;28;20482;-69